sensor_id;sensor_type;location;lat;lon;timestamp;pressure;altitude;pressure_sealevel;temperature;humidity
73171;BME280;61381;50.118;19.962;2023-05-08T00:03:15;99457.75;;;5.33;100.00
73171;BME280;61381;50.118;19.962;2023-05-08T00:08:16;99457.25;;;5.24;100.00
73171;BME280;61381;50.118;19.962;2023-05-08T00:13:17;99466.69;;;5.20;100.00
73171;BME280;61381;50.118;19.962;2023-05-08T00:18:19;99458.38;;;5.16;100.00
73171;BME280;61381;50.118;19.962;2023-05-08T00:23:20;99453.84;;;5.17;100.00
73171;BME280;61381;50.118;19.962;2023-05-08T00:28:21;99453.19;;;5.22;100.00
73171;BME280;61381;50.118;19.962;2023-05-08T00:33:23;99468.53;;;5.20;100.00
73171;BME280;61381;50.118;19.962;2023-05-08T00:38:24;99455.19;;;5.08;100.00
73171;BME280;61381;50.118;19.962;2023-05-08T00:43:25;99460.34;;;5.21;100.00
73171;BME280;61381;50.118;19.962;2023-05-08T00:48:29;99465.81;;;5.08;100.00
73171;BME280;61381;50.118;19.962;2023-05-08T00:53:32;99471.25;;;5.13;100.00
73171;BME280;61381;50.118;19.962;2023-05-08T00:58:35;99469.06;;;5.10;100.00
73171;BME280;61381;50.118;19.962;2023-05-08T01:03:38;99476.56;;;5.13;100.00
73171;BME280;61381;50.118;19.962;2023-05-08T01:08:41;99483.59;;;5.07;100.00
73171;BME280;61381;50.118;19.962;2023-05-08T01:13:50;99486.91;;;5.21;100.00
73171;BME280;61381;50.118;19.962;2023-05-08T01:18:58;99488.03;;;5.13;100.00
73171;BME280;61381;50.118;19.962;2023-05-08T01:24:24;99489.38;;;5.04;100.00
73171;BME280;61381;50.118;19.962;2023-05-08T01:29:51;99495.69;;;5.03;100.00
73171;BME280;61381;50.118;19.962;2023-05-08T01:35:09;99494.13;;;5.14;100.00
73171;BME280;61381;50.118;19.962;2023-05-08T01:40:18;99486.94;;;5.03;100.00
73171;BME280;61381;50.118;19.962;2023-05-08T01:45:24;99500.66;;;4.99;100.00
73171;BME280;61381;50.118;19.962;2023-05-08T01:50:32;99492.03;;;4.86;100.00
73171;BME280;61381;50.118;19.962;2023-05-08T01:55:36;99499.38;;;5.02;100.00
73171;BME280;61381;50.118;19.962;2023-05-08T02:00:40;99506.91;;;4.87;100.00
73171;BME280;61381;50.118;19.962;2023-05-08T02:05:44;99497.94;;;4.88;100.00
73171;BME280;61381;50.118;19.962;2023-05-08T02:10:47;99492.63;;;4.69;100.00
73171;BME280;61381;50.118;19.962;2023-05-08T02:15:52;99494.53;;;4.62;100.00
73171;BME280;61381;50.118;19.962;2023-05-08T02:20:55;99495.97;;;4.58;100.00
73171;BME280;61381;50.118;19.962;2023-05-08T02:26:01;99520.94;;;4.50;100.00
73171;BME280;61381;50.118;19.962;2023-05-08T02:31:04;99512.84;;;4.45;100.00
73171;BME280;61381;50.118;19.962;2023-05-08T02:36:10;99511.94;;;4.33;100.00
73171;BME280;61381;50.118;19.962;2023-05-08T02:41:14;99505.00;;;4.32;100.00
73171;BME280;61381;50.118;19.962;2023-05-08T02:46:20;99510.53;;;4.30;100.00
73171;BME280;61381;50.118;19.962;2023-05-08T02:51:31;99514.13;;;4.17;100.00
73171;BME280;61381;50.118;19.962;2023-05-08T02:56:42;99522.94;;;4.11;100.00
73171;BME280;61381;50.118;19.962;2023-05-08T03:01:49;99523.09;;;4.16;100.00
73171;BME280;61381;50.118;19.962;2023-05-08T03:06:55;99520.16;;;3.99;100.00
73171;BME280;61381;50.118;19.962;2023-05-08T03:12:00;99515.47;;;4.01;100.00
73171;BME280;61381;50.118;19.962;2023-05-08T03:17:05;99527.75;;;4.21;100.00
73171;BME280;61381;50.118;19.962;2023-05-08T03:22:09;99520.94;;;4.06;100.00
73171;BME280;61381;50.118;19.962;2023-05-08T03:27:10;99523.16;;;4.09;100.00
73171;BME280;61381;50.118;19.962;2023-05-08T03:32:12;99530.94;;;4.04;100.00
73171;BME280;61381;50.118;19.962;2023-05-08T03:37:15;99531.75;;;4.05;100.00
73171;BME280;61381;50.118;19.962;2023-05-08T03:42:16;99530.13;;;4.04;100.00
73171;BME280;61381;50.118;19.962;2023-05-08T03:47:18;99531.59;;;4.00;100.00
73171;BME280;61381;50.118;19.962;2023-05-08T03:52:22;99531.69;;;4.11;100.00
73171;BME280;61381;50.118;19.962;2023-05-08T03:57:26;99536.63;;;4.08;100.00
73171;BME280;61381;50.118;19.962;2023-05-08T04:02:36;99531.53;;;4.06;100.00
73171;BME280;61381;50.118;19.962;2023-05-08T04:07:44;99539.28;;;4.08;100.00
73171;BME280;61381;50.118;19.962;2023-05-08T04:12:54;99547.00;;;4.09;100.00
73171;BME280;61381;50.118;19.962;2023-05-08T04:17:59;99558.63;;;4.08;100.00
73171;BME280;61381;50.118;19.962;2023-05-08T04:23:06;99569.22;;;4.15;100.00
73171;BME280;61381;50.118;19.962;2023-05-08T04:28:09;99564.72;;;4.16;100.00
73171;BME280;61381;50.118;19.962;2023-05-08T04:33:11;99572.38;;;4.24;100.00
73171;BME280;61381;50.118;19.962;2023-05-08T04:38:14;99572.72;;;4.34;100.00
73171;BME280;61381;50.118;19.962;2023-05-08T04:43:15;99580.09;;;4.32;100.00
73171;BME280;61381;50.118;19.962;2023-05-08T04:48:16;99589.06;;;4.56;100.00
73171;BME280;61381;50.118;19.962;2023-05-08T04:53:19;99600.56;;;4.50;100.00
73171;BME280;61381;50.118;19.962;2023-05-08T04:58:20;99604.22;;;4.74;100.00
73171;BME280;61381;50.118;19.962;2023-05-08T05:03:20;99604.22;;;4.74;100.00
73171;BME280;61381;50.118;19.962;2023-05-08T05:08:23;99609.50;;;4.81;100.00
73171;BME280;61381;50.118;19.962;2023-05-08T05:13:24;99615.75;;;4.87;100.00
73171;BME280;61381;50.118;19.962;2023-05-08T05:18:25;99626.91;;;4.95;100.00
73171;BME280;61381;50.118;19.962;2023-05-08T05:23:27;99620.97;;;5.18;100.00
73171;BME280;61381;50.118;19.962;2023-05-08T05:28:28;99626.19;;;5.25;100.00
73171;BME280;61381;50.118;19.962;2023-05-08T05:33:29;99635.00;;;5.26;100.00
73171;BME280;61381;50.118;19.962;2023-05-08T05:38:31;99635.06;;;5.19;100.00
73171;BME280;61381;50.118;19.962;2023-05-08T05:43:32;99632.91;;;5.09;100.00
73171;BME280;61381;50.118;19.962;2023-05-08T05:48:34;99642.78;;;5.21;100.00
73171;BME280;61381;50.118;19.962;2023-05-08T05:53:36;99649.97;;;5.39;100.00
73171;BME280;61381;50.118;19.962;2023-05-08T05:58:37;99654.03;;;5.41;100.00
73171;BME280;61381;50.118;19.962;2023-05-08T06:03:38;99652.97;;;5.24;100.00
73171;BME280;61381;50.118;19.962;2023-05-08T06:08:40;99663.22;;;5.45;100.00
73171;BME280;61381;50.118;19.962;2023-05-08T06:13:41;99663.47;;;5.37;100.00
73171;BME280;61381;50.118;19.962;2023-05-08T06:18:42;99673.44;;;5.23;100.00
73171;BME280;61381;50.118;19.962;2023-05-08T06:23:44;99668.31;;;5.65;100.00
73171;BME280;61381;50.118;19.962;2023-05-08T06:28:45;99678.91;;;5.84;100.00
73171;BME280;61381;50.118;19.962;2023-05-08T06:33:46;99683.72;;;5.57;100.00
73171;BME280;61381;50.118;19.962;2023-05-08T06:38:49;99685.72;;;5.61;100.00
73171;BME280;61381;50.118;19.962;2023-05-08T06:43:50;99690.81;;;5.81;100.00
73171;BME280;61381;50.118;19.962;2023-05-08T06:48:51;99686.28;;;5.82;100.00
73171;BME280;61381;50.118;19.962;2023-05-08T06:53:53;99694.09;;;6.14;100.00
73171;BME280;61381;50.118;19.962;2023-05-08T06:58:54;99690.72;;;7.03;100.00
73171;BME280;61381;50.118;19.962;2023-05-08T07:03:55;99705.53;;;7.70;100.00
73171;BME280;61381;50.118;19.962;2023-05-08T07:08:57;99710.28;;;8.20;100.00
73171;BME280;61381;50.118;19.962;2023-05-08T07:13:58;99722.56;;;7.68;100.00
73171;BME280;61381;50.118;19.962;2023-05-08T07:18:59;99716.59;;;7.49;100.00
73171;BME280;61381;50.118;19.962;2023-05-08T07:24:02;99710.72;;;8.29;100.00
73171;BME280;61381;50.118;19.962;2023-05-08T07:29:03;99712.69;;;8.79;98.47
73171;BME280;61381;50.118;19.962;2023-05-08T07:34:04;99723.06;;;9.09;96.07
73171;BME280;61381;50.118;19.962;2023-05-08T07:39:06;99725.63;;;8.53;98.02
73171;BME280;61381;50.118;19.962;2023-05-08T07:44:07;99727.53;;;9.04;97.09
73171;BME280;61381;50.118;19.962;2023-05-08T07:49:08;99741.13;;;9.19;97.12
73171;BME280;61381;50.118;19.962;2023-05-08T07:54:11;99729.13;;;8.88;98.09
73171;BME280;61381;50.118;19.962;2023-05-08T07:59:12;99730.31;;;8.63;99.88
73171;BME280;61381;50.118;19.962;2023-05-08T08:04:13;99734.97;;;8.27;100.00
73171;BME280;61381;50.118;19.962;2023-05-08T08:09:15;99726.91;;;8.68;98.70
73171;BME280;61381;50.118;19.962;2023-05-08T08:14:16;99724.81;;;9.38;95.26
73171;BME280;61381;50.118;19.962;2023-05-08T08:19:17;99728.47;;;8.64;95.84
73171;BME280;61381;50.118;19.962;2023-05-08T08:24:19;99729.47;;;9.08;97.37
73171;BME280;61381;50.118;19.962;2023-05-08T08:29:20;99733.91;;;8.86;94.39
73171;BME280;61381;50.118;19.962;2023-05-08T08:34:21;99748.19;;;8.91;95.07
73171;BME280;61381;50.118;19.962;2023-05-08T08:39:24;99731.91;;;8.93;93.61
73171;BME280;61381;50.118;19.962;2023-05-08T08:44:25;99733.34;;;9.35;94.54
73171;BME280;61381;50.118;19.962;2023-05-08T08:49:30;99728.59;;;9.59;87.00
73171;BME280;61381;50.118;19.962;2023-05-08T08:54:33;99729.28;;;10.60;83.31
73171;BME280;61381;50.118;19.962;2023-05-08T08:59:37;99740.94;;;9.43;88.46
73171;BME280;61381;50.118;19.962;2023-05-08T09:04:38;99745.34;;;9.71;88.91
73171;BME280;61381;50.118;19.962;2023-05-08T09:09:41;99753.84;;;9.85;88.19
73171;BME280;61381;50.118;19.962;2023-05-08T09:14:42;99753.72;;;9.97;88.94
73171;BME280;61381;50.118;19.962;2023-05-08T09:19:43;99751.59;;;9.60;90.33
73171;BME280;61381;50.118;19.962;2023-05-08T09:24:56;99746.22;;;9.38;91.18
73171;BME280;61381;50.118;19.962;2023-05-08T09:29:59;99750.16;;;9.91;90.83
73171;BME280;61381;50.118;19.962;2023-05-08T09:35:01;99740.38;;;10.46;86.63
73171;BME280;61381;50.118;19.962;2023-05-08T09:40:17;99749.19;;;10.69;87.51
73171;BME280;61381;50.118;19.962;2023-05-08T09:45:26;99745.47;;;10.26;89.98
73171;BME280;61381;50.118;19.962;2023-05-08T09:50:27;99748.31;;;9.53;93.33
73171;BME280;61381;50.118;19.962;2023-05-08T09:55:45;99752.69;;;9.59;92.13
73171;BME280;61381;50.118;19.962;2023-05-08T10:00:46;99754.91;;;9.45;92.87
73171;BME280;61381;50.118;19.962;2023-05-08T10:05:47;99761.16;;;9.73;93.87
73171;BME280;61381;50.118;19.962;2023-05-08T10:10:49;99751.81;;;10.20;91.76
73171;BME280;61381;50.118;19.962;2023-05-08T10:15:53;99749.47;;;10.73;89.04
73171;BME280;61381;50.118;19.962;2023-05-08T10:20:56;99748.72;;;10.50;86.81
73171;BME280;61381;50.118;19.962;2023-05-08T10:26:06;99742.44;;;10.17;90.16
73171;BME280;61381;50.118;19.962;2023-05-08T10:31:11;99758.34;;;11.05;85.26
73171;BME280;61381;50.118;19.962;2023-05-08T10:36:13;99755.78;;;11.58;82.10
73171;BME280;61381;50.118;19.962;2023-05-08T10:41:15;99748.97;;;12.77;80.52
73171;BME280;61381;50.118;19.962;2023-05-08T10:46:21;99743.53;;;12.41;77.79
73171;BME280;61381;50.118;19.962;2023-05-08T10:51:34;99743.75;;;12.24;76.17
73171;BME280;61381;50.118;19.962;2023-05-08T10:56:39;99740.34;;;11.81;79.56
73171;BME280;61381;50.118;19.962;2023-05-08T11:01:40;99749.50;;;11.85;78.70
73171;BME280;61381;50.118;19.962;2023-05-08T11:06:42;99742.16;;;11.28;82.41
73171;BME280;61381;50.118;19.962;2023-05-08T11:11:51;99734.22;;;11.48;79.83
73171;BME280;61381;50.118;19.962;2023-05-08T11:17:07;99737.41;;;11.40;80.81
73171;BME280;61381;50.118;19.962;2023-05-08T11:22:13;99728.50;;;10.64;83.11
73171;BME280;61381;50.118;19.962;2023-05-08T11:27:16;99727.56;;;11.13;83.05
73171;BME280;61381;50.118;19.962;2023-05-08T11:32:17;99717.56;;;11.41;80.43
73171;BME280;61381;50.118;19.962;2023-05-08T11:37:19;99738.31;;;12.09;80.95
73171;BME280;61381;50.118;19.962;2023-05-08T11:42:34;99736.53;;;12.35;81.43
73171;BME280;61381;50.118;19.962;2023-05-08T11:47:40;99728.38;;;12.09;80.61
73171;BME280;61381;50.118;19.962;2023-05-08T11:52:41;99723.56;;;12.17;79.68
73171;BME280;61381;50.118;19.962;2023-05-08T11:57:43;99730.41;;;12.60;75.44
73171;BME280;61381;50.118;19.962;2023-05-08T12:02:44;99718.56;;;13.44;74.42
73171;BME280;61381;50.118;19.962;2023-05-08T12:07:46;99710.75;;;11.76;78.37
73171;BME280;61381;50.118;19.962;2023-05-08T12:12:48;99715.56;;;12.32;76.42
73171;BME280;61381;50.118;19.962;2023-05-08T12:17:59;99720.16;;;12.47;76.97
73171;BME280;61381;50.118;19.962;2023-05-08T12:23:02;99710.53;;;11.83;78.88
73171;BME280;61381;50.118;19.962;2023-05-08T12:28:05;99709.91;;;11.65;79.74
73171;BME280;61381;50.118;19.962;2023-05-08T12:33:06;99705.44;;;11.81;81.45
73171;BME280;61381;50.118;19.962;2023-05-08T12:38:07;99705.16;;;12.66;76.28
73171;BME280;61381;50.118;19.962;2023-05-08T12:43:11;99708.09;;;13.01;77.20
73171;BME280;61381;50.118;19.962;2023-05-08T12:48:13;99706.47;;;12.48;75.55
73171;BME280;61381;50.118;19.962;2023-05-08T12:53:16;99711.22;;;12.16;74.09
73171;BME280;61381;50.118;19.962;2023-05-08T12:58:19;99703.78;;;12.84;76.65
73171;BME280;61381;50.118;19.962;2023-05-08T13:03:21;99708.56;;;12.21;75.09
73171;BME280;61381;50.118;19.962;2023-05-08T13:08:28;99709.69;;;11.72;76.79
73171;BME280;61381;50.118;19.962;2023-05-08T13:13:33;99697.97;;;11.40;76.91
73171;BME280;61381;50.118;19.962;2023-05-08T13:18:34;99700.13;;;11.43;79.02
73171;BME280;61381;50.118;19.962;2023-05-08T13:23:36;99706.56;;;11.95;75.51
73171;BME280;61381;50.118;19.962;2023-05-08T13:28:38;99705.56;;;12.07;74.67
73171;BME280;61381;50.118;19.962;2023-05-08T13:33:39;99700.56;;;12.62;72.87
73171;BME280;61381;50.118;19.962;2023-05-08T13:38:40;99696.84;;;11.89;73.53
73171;BME280;61381;50.118;19.962;2023-05-08T13:43:42;99708.44;;;11.90;73.04
73171;BME280;61381;50.118;19.962;2023-05-08T13:48:43;99701.78;;;11.98;73.67
73171;BME280;61381;50.118;19.962;2023-05-08T13:53:45;99691.84;;;12.03;73.71
73171;BME280;61381;50.118;19.962;2023-05-08T13:58:47;99690.44;;;11.90;71.83
73171;BME280;61381;50.118;19.962;2023-05-08T14:03:48;99689.56;;;12.63;70.09
73171;BME280;61381;50.118;19.962;2023-05-08T14:08:49;99688.50;;;11.81;73.94
73171;BME280;61381;50.118;19.962;2023-05-08T14:13:51;99691.09;;;11.65;74.12
73171;BME280;61381;50.118;19.962;2023-05-08T14:18:52;99688.56;;;11.38;76.64
73171;BME280;61381;50.118;19.962;2023-05-08T14:23:53;99682.00;;;11.18;77.30
73171;BME280;61381;50.118;19.962;2023-05-08T14:28:56;99690.06;;;11.18;76.65
73171;BME280;61381;50.118;19.962;2023-05-08T14:33:57;99685.66;;;12.03;75.77
73171;BME280;61381;50.118;19.962;2023-05-08T14:38:58;99690.53;;;12.16;76.10
73171;BME280;61381;50.118;19.962;2023-05-08T14:44:00;99684.13;;;12.43;73.35
73171;BME280;61381;50.118;19.962;2023-05-08T14:49:01;99695.63;;;12.07;74.02
73171;BME280;61381;50.118;19.962;2023-05-08T14:54:03;99686.28;;;12.30;76.19
73171;BME280;61381;50.118;19.962;2023-05-08T14:59:05;99686.50;;;12.08;74.59
73171;BME280;61381;50.118;19.962;2023-05-08T15:04:06;99685.19;;;12.26;72.76
73171;BME280;61381;50.118;19.962;2023-05-08T15:09:07;99685.16;;;12.16;74.47
73171;BME280;61381;50.118;19.962;2023-05-08T15:14:10;99682.78;;;11.67;76.25
73171;BME280;61381;50.118;19.962;2023-05-08T15:19:11;99690.09;;;11.76;74.99
73171;BME280;61381;50.118;19.962;2023-05-08T15:24:12;99684.31;;;12.00;74.37
73171;BME280;61381;50.118;19.962;2023-05-08T15:29:15;99688.13;;;12.15;73.93
73171;BME280;61381;50.118;19.962;2023-05-08T15:34:16;99682.25;;;12.43;72.17
73171;BME280;61381;50.118;19.962;2023-05-08T15:39:17;99682.28;;;12.64;74.62
73171;BME280;61381;50.118;19.962;2023-05-08T15:44:19;99670.44;;;12.91;70.70
73171;BME280;61381;50.118;19.962;2023-05-08T15:49:20;99675.00;;;13.06;68.16
73171;BME280;61381;50.118;19.962;2023-05-08T15:54:21;99673.38;;;12.32;71.78
73171;BME280;61381;50.118;19.962;2023-05-08T15:59:23;99662.41;;;11.71;69.39
73171;BME280;61381;50.118;19.962;2023-05-08T16:04:24;99658.28;;;12.01;69.67
73171;BME280;61381;50.118;19.962;2023-05-08T16:09:25;99654.84;;;12.52;72.49
73171;BME280;61381;50.118;19.962;2023-05-08T16:14:28;99650.81;;;12.28;70.37
73171;BME280;61381;50.118;19.962;2023-05-08T16:19:29;99644.16;;;11.63;72.36
73171;BME280;61381;50.118;19.962;2023-05-08T16:24:30;99643.16;;;11.26;74.34
73171;BME280;61381;50.118;19.962;2023-05-08T16:29:32;99657.88;;;11.18;76.21
73171;BME280;61381;50.118;19.962;2023-05-08T16:34:33;99652.00;;;11.27;76.26
73171;BME280;61381;50.118;19.962;2023-05-08T16:39:34;99659.09;;;11.48;75.71
73171;BME280;61381;50.118;19.962;2023-05-08T16:44:37;99660.78;;;11.65;75.31
73171;BME280;61381;50.118;19.962;2023-05-08T16:49:38;99656.38;;;12.01;74.63
73171;BME280;61381;50.118;19.962;2023-05-08T16:54:39;99654.56;;;12.38;74.26
73171;BME280;61381;50.118;19.962;2023-05-08T16:59:41;99653.88;;;11.84;72.36
73171;BME280;61381;50.118;19.962;2023-05-08T17:04:43;99656.22;;;11.65;73.35
73171;BME280;61381;50.118;19.962;2023-05-08T17:09:44;99648.88;;;11.40;74.64
73171;BME280;61381;50.118;19.962;2023-05-08T17:14:47;99651.22;;;11.31;76.50
73171;BME280;61381;50.118;19.962;2023-05-08T17:19:48;99649.88;;;10.86;77.40
73171;BME280;61381;50.118;19.962;2023-05-08T17:24:49;99652.72;;;10.69;78.36
73171;BME280;61381;50.118;19.962;2023-05-08T17:29:53;99663.53;;;10.52;78.42
73171;BME280;61381;50.118;19.962;2023-05-08T17:34:54;99664.75;;;10.39;78.78
73171;BME280;61381;50.118;19.962;2023-05-08T17:39:55;99662.38;;;10.15;79.45
73171;BME280;61381;50.118;19.962;2023-05-08T17:44:58;99658.44;;;10.01;80.40
73171;BME280;61381;50.118;19.962;2023-05-08T17:49:59;99661.66;;;9.76;82.80
73171;BME280;61381;50.118;19.962;2023-05-08T17:55:00;99651.69;;;9.49;84.56
73171;BME280;61381;50.118;19.962;2023-05-08T18:00:03;99648.09;;;9.21;86.80
73171;BME280;61381;50.118;19.962;2023-05-08T18:05:05;99635.19;;;8.96;89.95
73171;BME280;61381;50.118;19.962;2023-05-08T18:10:07;99649.88;;;8.77;91.23
73171;BME280;61381;50.118;19.962;2023-05-08T18:15:10;99644.22;;;8.73;92.13
73171;BME280;61381;50.118;19.962;2023-05-08T18:20:11;99660.31;;;8.61;94.49
73171;BME280;61381;50.118;19.962;2023-05-08T18:25:12;99655.63;;;8.68;94.17
73171;BME280;61381;50.118;19.962;2023-05-08T18:30:15;99657.81;;;8.71;94.41
73171;BME280;61381;50.118;19.962;2023-05-08T18:35:16;99655.34;;;8.53;97.18
73171;BME280;61381;50.118;19.962;2023-05-08T18:40:17;99665.66;;;8.32;98.09
73171;BME280;61381;50.118;19.962;2023-05-08T18:45:19;99665.41;;;8.05;100.00
73171;BME280;61381;50.118;19.962;2023-05-08T18:50:21;99669.47;;;7.67;100.00
73171;BME280;61381;50.118;19.962;2023-05-08T18:55:22;99676.03;;;7.36;100.00
73171;BME280;61381;50.118;19.962;2023-05-08T19:00:24;99677.19;;;7.16;100.00
73171;BME280;61381;50.118;19.962;2023-05-08T19:05:25;99672.66;;;7.17;100.00
73171;BME280;61381;50.118;19.962;2023-05-08T19:10:26;99672.78;;;6.98;100.00
73171;BME280;61381;50.118;19.962;2023-05-08T19:15:29;99670.00;;;6.81;100.00
73171;BME280;61381;50.118;19.962;2023-05-08T19:20:30;99671.81;;;6.69;100.00
73171;BME280;61381;50.118;19.962;2023-05-08T19:25:31;99668.09;;;6.58;100.00
73171;BME280;61381;50.118;19.962;2023-05-08T19:30:33;99670.94;;;6.45;100.00
73171;BME280;61381;50.118;19.962;2023-05-08T19:35:34;99668.63;;;6.36;100.00
73171;BME280;61381;50.118;19.962;2023-05-08T19:40:35;99663.19;;;6.31;100.00
73171;BME280;61381;50.118;19.962;2023-05-08T19:45:38;99671.41;;;6.30;100.00
73171;BME280;61381;50.118;19.962;2023-05-08T19:50:39;99660.25;;;6.21;100.00
73171;BME280;61381;50.118;19.962;2023-05-08T19:55:40;99651.47;;;6.20;100.00
73171;BME280;61381;50.118;19.962;2023-05-08T20:00:42;99647.53;;;6.23;100.00
73171;BME280;61381;50.118;19.962;2023-05-08T20:05:43;99645.31;;;6.20;100.00
73171;BME280;61381;50.118;19.962;2023-05-08T20:10:44;99642.19;;;6.11;100.00
73171;BME280;61381;50.118;19.962;2023-05-08T20:15:47;99636.28;;;5.90;100.00
73171;BME280;61381;50.118;19.962;2023-05-08T20:20:48;99644.25;;;5.90;100.00
73171;BME280;61381;50.118;19.962;2023-05-08T20:25:49;99639.63;;;5.67;100.00
73171;BME280;61381;50.118;19.962;2023-05-08T20:30:51;99637.13;;;5.54;100.00
73171;BME280;61381;50.118;19.962;2023-05-08T20:35:52;99635.56;;;5.28;100.00
73171;BME280;61381;50.118;19.962;2023-05-08T20:40:53;99628.03;;;5.06;100.00
73171;BME280;61381;50.118;19.962;2023-05-08T20:45:55;99632.91;;;5.09;100.00
73171;BME280;61381;50.118;19.962;2023-05-08T20:50:56;99628.38;;;4.91;100.00
73171;BME280;61381;50.118;19.962;2023-05-08T20:56:00;99629.66;;;4.89;100.00
73171;BME280;61381;50.118;19.962;2023-05-08T21:01:02;99626.09;;;4.76;100.00
73171;BME280;61381;50.118;19.962;2023-05-08T21:06:03;99623.88;;;4.73;100.00
73171;BME280;61381;50.118;19.962;2023-05-08T21:11:04;99624.34;;;4.63;100.00
73171;BME280;61381;50.118;19.962;2023-05-08T21:16:07;99617.34;;;4.44;100.00
73171;BME280;61381;50.118;19.962;2023-05-08T21:21:14;99620.75;;;4.51;100.00
73171;BME280;61381;50.118;19.962;2023-05-08T21:26:15;99607.28;;;4.53;100.00
73171;BME280;61381;50.118;19.962;2023-05-08T21:31:18;99606.81;;;4.62;100.00
73171;BME280;61381;50.118;19.962;2023-05-08T21:36:19;99611.56;;;4.54;100.00
73171;BME280;61381;50.118;19.962;2023-05-08T21:41:19;99601.59;;;4.49;100.00
73171;BME280;61381;50.118;19.962;2023-05-08T21:46:22;99599.41;;;4.39;100.00
73171;BME280;61381;50.118;19.962;2023-05-08T21:51:23;99599.09;;;4.29;100.00
73171;BME280;61381;50.118;19.962;2023-05-08T21:56:24;99598.28;;;4.28;100.00
73171;BME280;61381;50.118;19.962;2023-05-08T22:01:26;99588.72;;;4.27;100.00
73171;BME280;61381;50.118;19.962;2023-05-08T22:06:27;99587.66;;;4.28;100.00
73171;BME280;61381;50.118;19.962;2023-05-08T22:11:28;99587.38;;;4.11;100.00
73171;BME280;61381;50.118;19.962;2023-05-08T22:16:30;99586.56;;;4.11;100.00
73171;BME280;61381;50.118;19.962;2023-05-08T22:21:31;99582.00;;;3.93;100.00
73171;BME280;61381;50.118;19.962;2023-05-08T22:26:32;99573.56;;;3.71;100.00
73171;BME280;61381;50.118;19.962;2023-05-08T22:31:34;99577.59;;;3.73;100.00
73171;BME280;61381;50.118;19.962;2023-05-08T22:36:36;99569.03;;;3.78;100.00
73171;BME280;61381;50.118;19.962;2023-05-08T22:41:38;99568.91;;;3.60;100.00
73171;BME280;61381;50.118;19.962;2023-05-08T22:46:41;99569.81;;;3.47;100.00
73171;BME280;61381;50.118;19.962;2023-05-08T22:51:42;99574.69;;;3.50;100.00
73171;BME280;61381;50.118;19.962;2023-05-08T22:56:43;99565.09;;;3.55;100.00
73171;BME280;61381;50.118;19.962;2023-05-08T23:01:45;99565.81;;;3.69;100.00
73171;BME280;61381;50.118;19.962;2023-05-08T23:06:46;99568.06;;;3.66;100.00
73171;BME280;61381;50.118;19.962;2023-05-08T23:11:47;99566.88;;;3.62;100.00
73171;BME280;61381;50.118;19.962;2023-05-08T23:16:49;99566.69;;;3.63;100.00
73171;BME280;61381;50.118;19.962;2023-05-08T23:21:50;99561.19;;;3.58;100.00
73171;BME280;61381;50.118;19.962;2023-05-08T23:26:51;99558.41;;;3.46;100.00
73171;BME280;61381;50.118;19.962;2023-05-08T23:31:54;99558.53;;;3.58;100.00
73171;BME280;61381;50.118;19.962;2023-05-08T23:36:55;99553.59;;;3.68;100.00
73171;BME280;61381;50.118;19.962;2023-05-08T23:41:56;99548.88;;;3.77;100.00
73171;BME280;61381;50.118;19.962;2023-05-08T23:46:58;99548.28;;;3.68;100.00
73171;BME280;61381;50.118;19.962;2023-05-08T23:51:59;99536.03;;;3.74;100.00
73171;BME280;61381;50.118;19.962;2023-05-08T23:57:00;99538.91;;;3.72;100.00
